sensor_id;sensor_type;location;lat;lon;timestamp;P1;durP1;ratioP1;P2;durP2;ratioP2
73729;SDS011;62036;48.128;16.458;2023-08-12T00:01:54;4.15;;;3.00;;
73729;SDS011;62036;48.128;16.458;2023-08-12T00:04:20;3.72;;;3.28;;
73729;SDS011;62036;48.128;16.458;2023-08-12T00:06:47;3.85;;;3.05;;
73729;SDS011;62036;48.128;16.458;2023-08-12T00:09:14;3.78;;;2.78;;
73729;SDS011;62036;48.128;16.458;2023-08-12T00:11:40;4.82;;;3.63;;
73729;SDS011;62036;48.128;16.458;2023-08-12T00:14:06;4.32;;;3.60;;
73729;SDS011;62036;48.128;16.458;2023-08-12T00:16:32;4.80;;;3.40;;
73729;SDS011;62036;48.128;16.458;2023-08-12T00:18:58;3.95;;;3.47;;
73729;SDS011;62036;48.128;16.458;2023-08-12T00:21:25;3.42;;;3.10;;
73729;SDS011;62036;48.128;16.458;2023-08-12T00:23:51;3.35;;;3.05;;
73729;SDS011;62036;48.128;16.458;2023-08-12T00:26:20;4.47;;;4.00;;
73729;SDS011;62036;48.128;16.458;2023-08-12T00:28:48;4.78;;;3.70;;
73729;SDS011;62036;48.128;16.458;2023-08-12T00:31:16;4.10;;;3.38;;
73729;SDS011;62036;48.128;16.458;2023-08-12T00:33:42;3.90;;;3.50;;
73729;SDS011;62036;48.128;16.458;2023-08-12T00:36:08;3.85;;;3.45;;
73729;SDS011;62036;48.128;16.458;2023-08-12T00:38:37;3.25;;;2.63;;
73729;SDS011;62036;48.128;16.458;2023-08-12T00:41:03;5.00;;;3.50;;
73729;SDS011;62036;48.128;16.458;2023-08-12T00:43:29;4.95;;;3.75;;
73729;SDS011;62036;48.128;16.458;2023-08-12T00:45:55;4.38;;;4.03;;
73729;SDS011;62036;48.128;16.458;2023-08-12T00:48:21;4.03;;;3.63;;
73729;SDS011;62036;48.128;16.458;2023-08-12T00:50:48;5.28;;;3.75;;
73729;SDS011;62036;48.128;16.458;2023-08-12T00:53:14;3.80;;;3.40;;
73729;SDS011;62036;48.128;16.458;2023-08-12T00:55:40;7.60;;;4.20;;
73729;SDS011;62036;48.128;16.458;2023-08-12T00:58:06;4.78;;;3.63;;
73729;SDS011;62036;48.128;16.458;2023-08-12T01:00:32;4.45;;;4.03;;
73729;SDS011;62036;48.128;16.458;2023-08-12T01:03:01;4.65;;;4.10;;
73729;SDS011;62036;48.128;16.458;2023-08-12T01:05:29;4.43;;;4.03;;
73729;SDS011;62036;48.128;16.458;2023-08-12T01:07:56;4.00;;;3.67;;
73729;SDS011;62036;48.128;16.458;2023-08-12T01:10:22;4.60;;;4.20;;
73729;SDS011;62036;48.128;16.458;2023-08-12T01:15:20;4.78;;;3.78;;
73729;SDS011;62036;48.128;16.458;2023-08-12T01:17:46;4.70;;;3.83;;
73729;SDS011;62036;48.128;16.458;2023-08-12T01:20:17;5.03;;;3.33;;
73729;SDS011;62036;48.128;16.458;2023-08-12T01:22:44;4.32;;;3.92;;
73729;SDS011;62036;48.128;16.458;2023-08-12T01:25:10;4.78;;;4.32;;
73729;SDS011;62036;48.128;16.458;2023-08-12T01:27:36;4.22;;;3.70;;
73729;SDS011;62036;48.128;16.458;2023-08-12T01:30:02;5.13;;;4.18;;
73729;SDS011;62036;48.128;16.458;2023-08-12T01:32:49;4.72;;;4.25;;
73729;SDS011;62036;48.128;16.458;2023-08-12T01:37:43;5.18;;;4.57;;
73729;SDS011;62036;48.128;16.458;2023-08-12T01:40:09;6.97;;;4.18;;
73729;SDS011;62036;48.128;16.458;2023-08-12T01:42:36;4.03;;;3.38;;
73729;SDS011;62036;48.128;16.458;2023-08-12T01:45:02;4.47;;;3.38;;
73729;SDS011;62036;48.128;16.458;2023-08-12T01:47:28;4.07;;;3.33;;
73729;SDS011;62036;48.128;16.458;2023-08-12T01:49:55;3.83;;;3.47;;
73729;SDS011;62036;48.128;16.458;2023-08-12T01:52:21;4.75;;;3.78;;
73729;SDS011;62036;48.128;16.458;2023-08-12T01:54:47;4.28;;;3.88;;
73729;SDS011;62036;48.128;16.458;2023-08-12T01:57:13;4.85;;;4.35;;
73729;SDS011;62036;48.128;16.458;2023-08-12T01:59:39;3.60;;;3.30;;
73729;SDS011;62036;48.128;16.458;2023-08-12T02:02:06;4.93;;;4.05;;
73729;SDS011;62036;48.128;16.458;2023-08-12T02:04:32;4.43;;;3.85;;
73729;SDS011;62036;48.128;16.458;2023-08-12T02:06:58;5.47;;;4.45;;
73729;SDS011;62036;48.128;16.458;2023-08-12T02:09:24;5.15;;;4.65;;
73729;SDS011;62036;48.128;16.458;2023-08-12T02:11:50;5.50;;;4.25;;
73729;SDS011;62036;48.128;16.458;2023-08-12T02:14:16;4.65;;;4.13;;
73729;SDS011;62036;48.128;16.458;2023-08-12T02:16:42;5.00;;;4.32;;
73729;SDS011;62036;48.128;16.458;2023-08-12T02:19:08;4.68;;;4.28;;
73729;SDS011;62036;48.128;16.458;2023-08-12T02:21:34;5.45;;;3.50;;
73729;SDS011;62036;48.128;16.458;2023-08-12T02:24:00;4.45;;;3.63;;
73729;SDS011;62036;48.128;16.458;2023-08-12T02:26:26;4.10;;;3.35;;
73729;SDS011;62036;48.128;16.458;2023-08-12T02:28:52;3.33;;;3.03;;
73729;SDS011;62036;48.128;16.458;2023-08-12T02:31:18;3.45;;;2.97;;
73729;SDS011;62036;48.128;16.458;2023-08-12T02:33:44;3.50;;;3.10;;
73729;SDS011;62036;48.128;16.458;2023-08-12T02:36:10;4.13;;;3.72;;
73729;SDS011;62036;48.128;16.458;2023-08-12T02:38:36;5.03;;;4.15;;
73729;SDS011;62036;48.128;16.458;2023-08-12T02:41:02;4.25;;;3.53;;
73729;SDS011;62036;48.128;16.458;2023-08-12T02:43:28;4.75;;;4.28;;
73729;SDS011;62036;48.128;16.458;2023-08-12T02:45:54;5.40;;;4.43;;
73729;SDS011;62036;48.128;16.458;2023-08-12T02:48:20;4.50;;;4.10;;
73729;SDS011;62036;48.128;16.458;2023-08-12T02:50:46;3.80;;;3.50;;
73729;SDS011;62036;48.128;16.458;2023-08-12T02:53:12;4.97;;;3.80;;
73729;SDS011;62036;48.128;16.458;2023-08-12T02:55:38;6.07;;;4.13;;
73729;SDS011;62036;48.128;16.458;2023-08-12T02:58:05;4.85;;;4.13;;
73729;SDS011;62036;48.128;16.458;2023-08-12T03:00:31;5.35;;;4.85;;
73729;SDS011;62036;48.128;16.458;2023-08-12T03:02:57;4.22;;;3.67;;
73729;SDS011;62036;48.128;16.458;2023-08-12T03:05:23;5.07;;;4.28;;
73729;SDS011;62036;48.128;16.458;2023-08-12T03:07:49;5.63;;;4.40;;
73729;SDS011;62036;48.128;16.458;2023-08-12T03:10:17;4.40;;;3.63;;
73729;SDS011;62036;48.128;16.458;2023-08-12T03:12:43;3.45;;;2.65;;
73729;SDS011;62036;48.128;16.458;2023-08-12T03:15:09;3.88;;;3.50;;
73729;SDS011;62036;48.128;16.458;2023-08-12T03:17:35;5.10;;;4.07;;
73729;SDS011;62036;48.128;16.458;2023-08-12T03:20:03;6.10;;;4.70;;
73729;SDS011;62036;48.128;16.458;2023-08-12T03:22:30;6.90;;;4.28;;
73729;SDS011;62036;48.128;16.458;2023-08-12T03:24:56;4.82;;;4.32;;
73729;SDS011;62036;48.128;16.458;2023-08-12T03:27:22;7.18;;;4.38;;
73729;SDS011;62036;48.128;16.458;2023-08-12T03:29:48;4.72;;;3.70;;
73729;SDS011;62036;48.128;16.458;2023-08-12T03:32:14;5.10;;;4.20;;
73729;SDS011;62036;48.128;16.458;2023-08-12T03:34:40;5.57;;;4.90;;
73729;SDS011;62036;48.128;16.458;2023-08-12T03:37:06;4.68;;;3.85;;
73729;SDS011;62036;48.128;16.458;2023-08-12T03:39:32;4.90;;;4.38;;
73729;SDS011;62036;48.128;16.458;2023-08-12T03:41:58;5.88;;;5.07;;
73729;SDS011;62036;48.128;16.458;2023-08-12T03:44:25;4.90;;;3.92;;
73729;SDS011;62036;48.128;16.458;2023-08-12T03:46:51;5.05;;;3.80;;
73729;SDS011;62036;48.128;16.458;2023-08-12T03:49:17;5.30;;;4.57;;
73729;SDS011;62036;48.128;16.458;2023-08-12T03:51:43;4.70;;;4.30;;
73729;SDS011;62036;48.128;16.458;2023-08-12T03:54:09;4.18;;;3.60;;
73729;SDS011;62036;48.128;16.458;2023-08-12T03:56:36;6.32;;;4.28;;
73729;SDS011;62036;48.128;16.458;2023-08-12T03:59:02;4.13;;;3.78;;
73729;SDS011;62036;48.128;16.458;2023-08-12T04:01:28;3.80;;;3.47;;
73729;SDS011;62036;48.128;16.458;2023-08-12T04:03:54;7.43;;;4.70;;
73729;SDS011;62036;48.128;16.458;2023-08-12T04:06:20;5.15;;;4.22;;
73729;SDS011;62036;48.128;16.458;2023-08-12T04:08:46;6.40;;;4.57;;
73729;SDS011;62036;48.128;16.458;2023-08-12T04:11:12;7.20;;;4.82;;
73729;SDS011;62036;48.128;16.458;2023-08-12T04:13:38;6.15;;;5.10;;
73729;SDS011;62036;48.128;16.458;2023-08-12T04:16:04;5.15;;;4.60;;
73729;SDS011;62036;48.128;16.458;2023-08-12T04:18:30;4.85;;;3.92;;
73729;SDS011;62036;48.128;16.458;2023-08-12T04:20:56;5.43;;;4.82;;
73729;SDS011;62036;48.128;16.458;2023-08-12T04:23:22;4.93;;;4.40;;
73729;SDS011;62036;48.128;16.458;2023-08-12T04:25:48;6.10;;;5.45;;
73729;SDS011;62036;48.128;16.458;2023-08-12T04:28:14;5.50;;;4.60;;
73729;SDS011;62036;48.128;16.458;2023-08-12T04:30:47;5.85;;;5.30;;
73729;SDS011;62036;48.128;16.458;2023-08-12T04:33:16;5.40;;;4.60;;
73729;SDS011;62036;48.128;16.458;2023-08-12T04:35:42;5.75;;;4.78;;
73729;SDS011;62036;48.128;16.458;2023-08-12T04:38:08;5.00;;;4.50;;
73729;SDS011;62036;48.128;16.458;2023-08-12T04:40:37;5.68;;;5.07;;
73729;SDS011;62036;48.128;16.458;2023-08-12T04:43:03;6.43;;;5.13;;
73729;SDS011;62036;48.128;16.458;2023-08-12T04:45:29;7.95;;;5.20;;
73729;SDS011;62036;48.128;16.458;2023-08-12T04:47:55;5.40;;;4.75;;
73729;SDS011;62036;48.128;16.458;2023-08-12T04:50:21;5.70;;;5.10;;
73729;SDS011;62036;48.128;16.458;2023-08-12T04:52:47;6.07;;;5.47;;
73729;SDS011;62036;48.128;16.458;2023-08-12T04:55:13;5.60;;;4.50;;
73729;SDS011;62036;48.128;16.458;2023-08-12T04:57:39;7.63;;;5.03;;
73729;SDS011;62036;48.128;16.458;2023-08-12T05:00:06;6.30;;;5.70;;
73729;SDS011;62036;48.128;16.458;2023-08-12T05:02:33;5.85;;;4.88;;
73729;SDS011;62036;48.128;16.458;2023-08-12T05:04:59;5.72;;;5.13;;
73729;SDS011;62036;48.128;16.458;2023-08-12T05:07:26;6.13;;;5.53;;
73729;SDS011;62036;48.128;16.458;2023-08-12T05:09:52;6.47;;;5.80;;
73729;SDS011;62036;48.128;16.458;2023-08-12T05:12:18;6.43;;;5.15;;
73729;SDS011;62036;48.128;16.458;2023-08-12T05:14:44;5.68;;;5.18;;
73729;SDS011;62036;48.128;16.458;2023-08-12T05:17:10;5.75;;;4.57;;
73729;SDS011;62036;48.128;16.458;2023-08-12T05:19:36;5.93;;;5.38;;
73729;SDS011;62036;48.128;16.458;2023-08-12T05:22:03;5.80;;;5.15;;
73729;SDS011;62036;48.128;16.458;2023-08-12T05:24:29;5.45;;;4.80;;
73729;SDS011;62036;48.128;16.458;2023-08-12T05:26:55;5.25;;;4.40;;
73729;SDS011;62036;48.128;16.458;2023-08-12T05:29:21;6.47;;;5.38;;
73729;SDS011;62036;48.128;16.458;2023-08-12T05:31:47;6.80;;;5.22;;
73729;SDS011;62036;48.128;16.458;2023-08-12T05:34:13;5.78;;;5.18;;
73729;SDS011;62036;48.128;16.458;2023-08-12T05:36:39;5.30;;;4.80;;
73729;SDS011;62036;48.128;16.458;2023-08-12T05:39:05;6.85;;;5.20;;
73729;SDS011;62036;48.128;16.458;2023-08-12T05:41:31;5.72;;;4.78;;
73729;SDS011;62036;48.128;16.458;2023-08-12T05:43:57;5.00;;;4.50;;
73729;SDS011;62036;48.128;16.458;2023-08-12T05:46:24;5.97;;;5.25;;
73729;SDS011;62036;48.128;16.458;2023-08-12T05:48:50;6.85;;;5.78;;
73729;SDS011;62036;48.128;16.458;2023-08-12T05:51:16;5.82;;;5.10;;
73729;SDS011;62036;48.128;16.458;2023-08-12T05:53:42;6.03;;;5.43;;
73729;SDS011;62036;48.128;16.458;2023-08-12T05:56:08;6.78;;;5.55;;
73729;SDS011;62036;48.128;16.458;2023-08-12T05:58:34;7.68;;;4.80;;
73729;SDS011;62036;48.128;16.458;2023-08-12T06:01:00;6.72;;;4.60;;
73729;SDS011;62036;48.128;16.458;2023-08-12T06:03:29;6.95;;;5.65;;
73729;SDS011;62036;48.128;16.458;2023-08-12T06:05:55;6.30;;;5.60;;
73729;SDS011;62036;48.128;16.458;2023-08-12T06:08:21;7.10;;;5.63;;
73729;SDS011;62036;48.128;16.458;2023-08-12T06:10:47;6.93;;;5.53;;
73729;SDS011;62036;48.128;16.458;2023-08-12T06:13:15;6.38;;;5.10;;
73729;SDS011;62036;48.128;16.458;2023-08-12T06:15:41;6.43;;;5.78;;
73729;SDS011;62036;48.128;16.458;2023-08-12T06:18:07;7.85;;;5.60;;
73729;SDS011;62036;48.128;16.458;2023-08-12T06:20:33;5.53;;;5.00;;
73729;SDS011;62036;48.128;16.458;2023-08-12T06:23:00;5.78;;;4.70;;
73729;SDS011;62036;48.128;16.458;2023-08-12T06:25:26;7.50;;;5.57;;
73729;SDS011;62036;48.128;16.458;2023-08-12T06:27:52;6.13;;;5.40;;
73729;SDS011;62036;48.128;16.458;2023-08-12T06:30:18;5.75;;;4.57;;
73729;SDS011;62036;48.128;16.458;2023-08-12T06:32:44;7.38;;;5.70;;
73729;SDS011;62036;48.128;16.458;2023-08-12T06:35:10;6.75;;;5.97;;
73729;SDS011;62036;48.128;16.458;2023-08-12T06:37:36;6.43;;;5.10;;
73729;SDS011;62036;48.128;16.458;2023-08-12T06:40:02;5.57;;;4.90;;
73729;SDS011;62036;48.128;16.458;2023-08-12T06:42:28;5.28;;;4.78;;
73729;SDS011;62036;48.128;16.458;2023-08-12T06:44:56;5.95;;;5.35;;
73729;SDS011;62036;48.128;16.458;2023-08-12T06:47:22;5.93;;;4.70;;
73729;SDS011;62036;48.128;16.458;2023-08-12T06:49:48;5.25;;;4.00;;
73729;SDS011;62036;48.128;16.458;2023-08-12T06:52:15;5.20;;;3.75;;
73729;SDS011;62036;48.128;16.458;2023-08-12T06:54:43;5.40;;;3.85;;
73729;SDS011;62036;48.128;16.458;2023-08-12T06:57:09;5.00;;;4.28;;
73729;SDS011;62036;48.128;16.458;2023-08-12T06:59:36;6.78;;;4.32;;
73729;SDS011;62036;48.128;16.458;2023-08-12T07:02:02;5.53;;;4.32;;
73729;SDS011;62036;48.128;16.458;2023-08-12T07:04:28;6.55;;;4.15;;
73729;SDS011;62036;48.128;16.458;2023-08-12T07:06:55;4.28;;;3.88;;
73729;SDS011;62036;48.128;16.458;2023-08-12T07:09:21;5.10;;;4.07;;
73729;SDS011;62036;48.128;16.458;2023-08-12T07:11:47;5.10;;;4.20;;
73729;SDS011;62036;48.128;16.458;2023-08-12T07:14:13;4.85;;;3.40;;
73729;SDS011;62036;48.128;16.458;2023-08-12T07:16:39;4.10;;;3.75;;
73729;SDS011;62036;48.128;16.458;2023-08-12T07:19:05;4.32;;;3.80;;
73729;SDS011;62036;48.128;16.458;2023-08-12T07:21:31;4.15;;;3.75;;
73729;SDS011;62036;48.128;16.458;2023-08-12T07:23:57;4.88;;;3.70;;
73729;SDS011;62036;48.128;16.458;2023-08-12T07:26:23;4.28;;;3.25;;
73729;SDS011;62036;48.128;16.458;2023-08-12T07:28:49;5.22;;;4.10;;
73729;SDS011;62036;48.128;16.458;2023-08-12T07:31:15;4.80;;;3.58;;
73729;SDS011;62036;48.128;16.458;2023-08-12T07:33:41;6.15;;;3.53;;
73729;SDS011;62036;48.128;16.458;2023-08-12T07:36:07;3.67;;;3.35;;
73729;SDS011;62036;48.128;16.458;2023-08-12T07:38:39;3.50;;;3.20;;
73729;SDS011;62036;48.128;16.458;2023-08-12T07:41:05;3.85;;;3.55;;
73729;SDS011;62036;48.128;16.458;2023-08-12T07:43:31;3.67;;;3.38;;
73729;SDS011;62036;48.128;16.458;2023-08-12T07:45:57;4.57;;;3.70;;
73729;SDS011;62036;48.128;16.458;2023-08-12T07:48:23;3.97;;;3.58;;
73729;SDS011;62036;48.128;16.458;2023-08-12T07:50:58;5.20;;;4.00;;
73729;SDS011;62036;48.128;16.458;2023-08-12T07:53:25;4.63;;;4.00;;
73729;SDS011;62036;48.128;16.458;2023-08-12T07:55:51;3.88;;;3.45;;
73729;SDS011;62036;48.128;16.458;2023-08-12T07:58:18;5.05;;;4.25;;
73729;SDS011;62036;48.128;16.458;2023-08-12T08:00:44;3.42;;;3.13;;
73729;SDS011;62036;48.128;16.458;2023-08-12T08:03:10;4.97;;;3.70;;
73729;SDS011;62036;48.128;16.458;2023-08-12T08:05:39;5.03;;;4.00;;
73729;SDS011;62036;48.128;16.458;2023-08-12T08:08:06;5.15;;;4.65;;
73729;SDS011;62036;48.128;16.458;2023-08-12T08:10:32;4.65;;;4.25;;
73729;SDS011;62036;48.128;16.458;2023-08-12T08:12:58;4.78;;;4.38;;
73729;SDS011;62036;48.128;16.458;2023-08-12T08:15:24;5.47;;;4.57;;
73729;SDS011;62036;48.128;16.458;2023-08-12T08:17:50;4.65;;;4.20;;
73729;SDS011;62036;48.128;16.458;2023-08-12T08:20:16;5.50;;;4.28;;
73729;SDS011;62036;48.128;16.458;2023-08-12T08:22:42;4.38;;;3.97;;
73729;SDS011;62036;48.128;16.458;2023-08-12T08:25:08;4.97;;;4.10;;
73729;SDS011;62036;48.128;16.458;2023-08-12T08:27:34;4.75;;;4.22;;
73729;SDS011;62036;48.128;16.458;2023-08-12T08:30:00;4.47;;;4.13;;
73729;SDS011;62036;48.128;16.458;2023-08-12T08:32:26;5.10;;;3.92;;
73729;SDS011;62036;48.128;16.458;2023-08-12T08:34:52;4.30;;;3.90;;
73729;SDS011;62036;48.128;16.458;2023-08-12T08:37:18;3.65;;;3.35;;
73729;SDS011;62036;48.128;16.458;2023-08-12T08:39:44;3.55;;;3.25;;
73729;SDS011;62036;48.128;16.458;2023-08-12T08:42:10;4.18;;;3.25;;
73729;SDS011;62036;48.128;16.458;2023-08-12T08:44:37;4.18;;;3.10;;
73729;SDS011;62036;48.128;16.458;2023-08-12T08:47:04;3.17;;;2.88;;
73729;SDS011;62036;48.128;16.458;2023-08-12T08:49:31;3.67;;;3.38;;
73729;SDS011;62036;48.128;16.458;2023-08-12T08:51:58;3.17;;;2.50;;
73729;SDS011;62036;48.128;16.458;2023-08-12T08:54:25;4.53;;;3.72;;
73729;SDS011;62036;48.128;16.458;2023-08-12T08:56:51;3.20;;;2.90;;
73729;SDS011;62036;48.128;16.458;2023-08-12T08:59:20;3.30;;;2.78;;
73729;SDS011;62036;48.128;16.458;2023-08-12T09:01:49;4.38;;;2.92;;
73729;SDS011;62036;48.128;16.458;2023-08-12T09:04:16;3.38;;;3.08;;
73729;SDS011;62036;48.128;16.458;2023-08-12T09:06:43;3.45;;;3.15;;
73729;SDS011;62036;48.128;16.458;2023-08-12T09:09:10;3.17;;;2.85;;
73729;SDS011;62036;48.128;16.458;2023-08-12T09:11:40;4.15;;;2.80;;
73729;SDS011;62036;48.128;16.458;2023-08-12T09:14:07;5.50;;;2.95;;
73729;SDS011;62036;48.128;16.458;2023-08-12T09:16:33;4.88;;;2.90;;
73729;SDS011;62036;48.128;16.458;2023-08-12T09:18:59;4.53;;;2.65;;
73729;SDS011;62036;48.128;16.458;2023-08-12T09:21:28;3.30;;;2.90;;
73729;SDS011;62036;48.128;16.458;2023-08-12T09:23:54;3.22;;;2.70;;
73729;SDS011;62036;48.128;16.458;2023-08-12T09:26:20;3.00;;;2.70;;
73729;SDS011;62036;48.128;16.458;2023-08-12T09:28:50;3.78;;;2.55;;
73729;SDS011;62036;48.128;16.458;2023-08-12T09:31:26;3.25;;;2.20;;
73729;SDS011;62036;48.128;16.458;2023-08-12T09:33:53;3.63;;;2.45;;
73729;SDS011;62036;48.128;16.458;2023-08-12T09:36:21;3.67;;;3.22;;
73729;SDS011;62036;48.128;16.458;2023-08-12T09:38:47;2.80;;;2.45;;
73729;SDS011;62036;48.128;16.458;2023-08-12T09:41:13;5.22;;;2.67;;
73729;SDS011;62036;48.128;16.458;2023-08-12T09:43:42;3.22;;;2.50;;
73729;SDS011;62036;48.128;16.458;2023-08-12T09:46:14;2.92;;;2.63;;
73729;SDS011;62036;48.128;16.458;2023-08-12T09:48:40;3.20;;;2.55;;
73729;SDS011;62036;48.128;16.458;2023-08-12T09:51:06;2.78;;;2.20;;
73729;SDS011;62036;48.128;16.458;2023-08-12T09:53:33;4.63;;;2.55;;
73729;SDS011;62036;48.128;16.458;2023-08-12T09:56:06;3.53;;;2.78;;
73729;SDS011;62036;48.128;16.458;2023-08-12T09:58:33;4.50;;;2.10;;
73729;SDS011;62036;48.128;16.458;2023-08-12T10:01:00;2.80;;;2.33;;
73729;SDS011;62036;48.128;16.458;2023-08-12T10:03:27;3.38;;;2.40;;
73729;SDS011;62036;48.128;16.458;2023-08-12T10:05:57;2.97;;;2.20;;
73729;SDS011;62036;48.128;16.458;2023-08-12T10:08:23;3.75;;;2.28;;
73729;SDS011;62036;48.128;16.458;2023-08-12T10:10:52;2.47;;;2.20;;
73729;SDS011;62036;48.128;16.458;2023-08-12T10:13:21;2.38;;;1.90;;
73729;SDS011;62036;48.128;16.458;2023-08-12T10:15:47;2.90;;;1.92;;
73729;SDS011;62036;48.128;16.458;2023-08-12T10:18:13;3.45;;;2.30;;
73729;SDS011;62036;48.128;16.458;2023-08-12T10:20:49;2.50;;;2.15;;
73729;SDS011;62036;48.128;16.458;2023-08-12T10:23:16;2.67;;;2.05;;
73729;SDS011;62036;48.128;16.458;2023-08-12T10:25:53;2.97;;;2.20;;
73729;SDS011;62036;48.128;16.458;2023-08-12T10:28:19;2.33;;;2.13;;
73729;SDS011;62036;48.128;16.458;2023-08-12T10:30:46;6.30;;;1.88;;
73729;SDS011;62036;48.128;16.458;2023-08-12T10:33:14;2.83;;;2.05;;
73729;SDS011;62036;48.128;16.458;2023-08-12T10:35:46;2.25;;;2.05;;
73729;SDS011;62036;48.128;16.458;2023-08-12T10:38:14;2.55;;;2.22;;
73729;SDS011;62036;48.128;16.458;2023-08-12T10:40:40;2.30;;;2.10;;
73729;SDS011;62036;48.128;16.458;2023-08-12T10:43:06;2.20;;;1.85;;
73729;SDS011;62036;48.128;16.458;2023-08-12T10:48:27;3.78;;;2.03;;
73729;SDS011;62036;48.128;16.458;2023-08-12T10:50:58;2.17;;;1.90;;
73729;SDS011;62036;48.128;16.458;2023-08-12T10:55:54;2.10;;;1.80;;
73729;SDS011;62036;48.128;16.458;2023-08-12T10:58:28;2.60;;;2.40;;
73729;SDS011;62036;48.128;16.458;2023-08-12T11:00:54;3.15;;;2.00;;
73729;SDS011;62036;48.128;16.458;2023-08-12T11:03:24;2.20;;;2.00;;
73729;SDS011;62036;48.128;16.458;2023-08-12T11:05:50;2.05;;;1.85;;
73729;SDS011;62036;48.128;16.458;2023-08-12T11:08:23;2.83;;;1.90;;
73729;SDS011;62036;48.128;16.458;2023-08-12T11:10:49;2.08;;;1.88;;
73729;SDS011;62036;48.128;16.458;2023-08-12T11:13:15;2.08;;;1.83;;
73729;SDS011;62036;48.128;16.458;2023-08-12T11:15:42;3.55;;;1.83;;
73729;SDS011;62036;48.128;16.458;2023-08-12T11:18:18;1.85;;;1.70;;
73729;SDS011;62036;48.128;16.458;2023-08-12T11:20:45;2.88;;;2.13;;
73729;SDS011;62036;48.128;16.458;2023-08-12T11:23:12;1.88;;;1.70;;
73729;SDS011;62036;48.128;16.458;2023-08-12T11:25:42;2.95;;;1.80;;
73729;SDS011;62036;48.128;16.458;2023-08-12T11:28:09;2.47;;;1.70;;
73729;SDS011;62036;48.128;16.458;2023-08-12T11:30:35;1.80;;;1.70;;
73729;SDS011;62036;48.128;16.458;2023-08-12T11:33:04;3.53;;;2.05;;
73729;SDS011;62036;48.128;16.458;2023-08-12T11:35:32;3.00;;;1.77;;
73729;SDS011;62036;48.128;16.458;2023-08-12T11:37:58;2.55;;;1.92;;
73729;SDS011;62036;48.128;16.458;2023-08-12T11:40:26;2.78;;;1.80;;
73729;SDS011;62036;48.128;16.458;2023-08-12T11:42:54;2.80;;;1.70;;
73729;SDS011;62036;48.128;16.458;2023-08-12T11:45:21;3.00;;;2.00;;
73729;SDS011;62036;48.128;16.458;2023-08-12T11:47:47;2.40;;;1.60;;
73729;SDS011;62036;48.128;16.458;2023-08-12T11:50:20;2.28;;;2.08;;
73729;SDS011;62036;48.128;16.458;2023-08-12T11:52:46;2.92;;;2.50;;
73729;SDS011;62036;48.128;16.458;2023-08-12T11:55:12;2.03;;;1.73;;
73729;SDS011;62036;48.128;16.458;2023-08-12T11:57:42;2.13;;;1.63;;
73729;SDS011;62036;48.128;16.458;2023-08-12T12:00:09;1.73;;;1.60;;
73729;SDS011;62036;48.128;16.458;2023-08-12T12:02:53;1.60;;;1.50;;
73729;SDS011;62036;48.128;16.458;2023-08-12T12:05:25;1.55;;;1.45;;
73729;SDS011;62036;48.128;16.458;2023-08-12T12:07:53;1.70;;;1.60;;
73729;SDS011;62036;48.128;16.458;2023-08-12T12:10:20;1.42;;;1.30;;
73729;SDS011;62036;48.128;16.458;2023-08-12T12:12:46;2.67;;;1.15;;
73729;SDS011;62036;48.128;16.458;2023-08-12T12:15:13;2.42;;;1.38;;
73729;SDS011;62036;48.128;16.458;2023-08-12T12:17:41;1.80;;;1.55;;
73729;SDS011;62036;48.128;16.458;2023-08-12T12:20:07;1.95;;;1.73;;
73729;SDS011;62036;48.128;16.458;2023-08-12T12:22:37;1.83;;;1.38;;
73729;SDS011;62036;48.128;16.458;2023-08-12T12:25:07;2.25;;;1.40;;
73729;SDS011;62036;48.128;16.458;2023-08-12T12:27:33;2.60;;;1.23;;
73729;SDS011;62036;48.128;16.458;2023-08-12T12:29:59;1.30;;;1.13;;
73729;SDS011;62036;48.128;16.458;2023-08-12T12:32:25;1.63;;;1.27;;
73729;SDS011;62036;48.128;16.458;2023-08-12T12:34:54;1.50;;;1.40;;
73729;SDS011;62036;48.128;16.458;2023-08-12T12:37:20;1.40;;;1.30;;
73729;SDS011;62036;48.128;16.458;2023-08-12T12:39:46;2.25;;;1.30;;
73729;SDS011;62036;48.128;16.458;2023-08-12T12:42:12;2.92;;;1.30;;
73729;SDS011;62036;48.128;16.458;2023-08-12T12:44:38;2.38;;;1.70;;
73729;SDS011;62036;48.128;16.458;2023-08-12T12:47:04;2.28;;;1.50;;
73729;SDS011;62036;48.128;16.458;2023-08-12T12:49:30;2.03;;;1.70;;
73729;SDS011;62036;48.128;16.458;2023-08-12T12:51:57;1.38;;;1.27;;
73729;SDS011;62036;48.128;16.458;2023-08-12T12:54:23;1.63;;;1.23;;
73729;SDS011;62036;48.128;16.458;2023-08-12T12:56:49;2.55;;;1.38;;
73729;SDS011;62036;48.128;16.458;2023-08-12T12:59:15;2.28;;;1.20;;
73729;SDS011;62036;48.128;16.458;2023-08-12T13:01:41;2.53;;;1.33;;
73729;SDS011;62036;48.128;16.458;2023-08-12T13:04:07;1.42;;;1.33;;
73729;SDS011;62036;48.128;16.458;2023-08-12T13:06:33;3.53;;;1.20;;
73729;SDS011;62036;48.128;16.458;2023-08-12T13:08:59;1.52;;;1.42;;
73729;SDS011;62036;48.128;16.458;2023-08-12T13:11:25;2.78;;;1.52;;
73729;SDS011;62036;48.128;16.458;2023-08-12T13:13:52;1.30;;;1.20;;
73729;SDS011;62036;48.128;16.458;2023-08-12T13:16:19;1.40;;;1.30;;
73729;SDS011;62036;48.128;16.458;2023-08-12T13:18:45;1.30;;;1.20;;
73729;SDS011;62036;48.128;16.458;2023-08-12T13:21:11;1.48;;;1.27;;
73729;SDS011;62036;48.128;16.458;2023-08-12T13:23:37;1.23;;;1.13;;
73729;SDS011;62036;48.128;16.458;2023-08-12T13:26:03;1.40;;;1.20;;
73729;SDS011;62036;48.128;16.458;2023-08-12T13:28:29;1.73;;;1.60;;
73729;SDS011;62036;48.128;16.458;2023-08-12T13:30:55;3.30;;;1.38;;
73729;SDS011;62036;48.128;16.458;2023-08-12T13:33:21;1.65;;;1.40;;
73729;SDS011;62036;48.128;16.458;2023-08-12T13:35:47;1.30;;;1.20;;
73729;SDS011;62036;48.128;16.458;2023-08-12T13:38:16;2.67;;;1.23;;
73729;SDS011;62036;48.128;16.458;2023-08-12T13:40:42;1.95;;;1.17;;
73729;SDS011;62036;48.128;16.458;2023-08-12T13:43:08;2.17;;;1.48;;
73729;SDS011;62036;48.128;16.458;2023-08-12T13:45:34;2.60;;;1.05;;
73729;SDS011;62036;48.128;16.458;2023-08-12T13:48:01;2.42;;;1.38;;
73729;SDS011;62036;48.128;16.458;2023-08-12T13:50:27;1.40;;;1.30;;
73729;SDS011;62036;48.128;16.458;2023-08-12T13:52:53;2.78;;;1.40;;
73729;SDS011;62036;48.128;16.458;2023-08-12T13:55:19;2.60;;;1.40;;
73729;SDS011;62036;48.128;16.458;2023-08-12T13:57:45;1.40;;;1.30;;
73729;SDS011;62036;48.128;16.458;2023-08-12T14:00:11;2.00;;;1.55;;
73729;SDS011;62036;48.128;16.458;2023-08-12T14:02:39;1.20;;;1.10;;
73729;SDS011;62036;48.128;16.458;2023-08-12T14:05:06;1.75;;;1.40;;
73729;SDS011;62036;48.128;16.458;2023-08-12T14:07:32;1.60;;;1.48;;
73729;SDS011;62036;48.128;16.458;2023-08-12T14:09:58;1.42;;;1.33;;
73729;SDS011;62036;48.128;16.458;2023-08-12T14:12:25;2.65;;;1.52;;
73729;SDS011;62036;48.128;16.458;2023-08-12T14:14:51;1.60;;;1.38;;
73729;SDS011;62036;48.128;16.458;2023-08-12T14:17:17;1.80;;;1.52;;
73729;SDS011;62036;48.128;16.458;2023-08-12T14:19:49;2.00;;;1.80;;
73729;SDS011;62036;48.128;16.458;2023-08-12T14:22:16;2.08;;;1.20;;
73729;SDS011;62036;48.128;16.458;2023-08-12T14:24:42;2.58;;;1.33;;
73729;SDS011;62036;48.128;16.458;2023-08-12T14:27:10;1.60;;;1.40;;
73729;SDS011;62036;48.128;16.458;2023-08-12T14:29:36;3.45;;;1.67;;
73729;SDS011;62036;48.128;16.458;2023-08-12T14:32:02;1.85;;;1.50;;
73729;SDS011;62036;48.128;16.458;2023-08-12T14:34:28;1.33;;;1.23;;
73729;SDS011;62036;48.128;16.458;2023-08-12T14:36:54;1.65;;;1.15;;
73729;SDS011;62036;48.128;16.458;2023-08-12T14:39:20;1.90;;;1.48;;
73729;SDS011;62036;48.128;16.458;2023-08-12T14:41:47;1.38;;;1.27;;